Saturday, January 20, 2018, 10:06 AM EST
Back to Local

KNUI, Knui Webster Field Annex

Location: Saint Inigoes, MD, United States Lat: 38.15
Local Time: 10:06 AM EST (15:06 GMT) Lon: -76.417
Time Zone: US/Eastern Elev: 19 ft

Show me the last for .
Show Coded

Time T Td Feel RH Dir Speed Gust Alt SLP Vis Weather Sky Remarks
2018-01-20 09:53 41 16 38 35 240° 5 - 30.05 30.05 10 CLR None
2018-01-20 08:53 37 18 32 45 230° 6 - 30.04 30.04 10 CLR None
2018-01-20 07:53 31 18 26 58 200° 5 - 30.03 30.03 9 CLR None
2018-01-20 06:53 26 19 - 74 - Calm - 30.03 30.02 10 CLR 6-hr Min Temp (7am): 26.1°F
6-hr Max Temp (7am): 28.9°F
2018-01-20 05:53 27 18 - 68 - Calm - 30.01 30.01 10 CLR None
2018-01-20 04:53 28 18 - 65 - Calm - 30.01 30.01 10 CLR None
2018-01-20 03:53 27 18 - 68 - Calm - 30.01 30.01 10 CLR None
2018-01-20 01:53 29 20 - 68 - Calm - 30.02 30.02 10 CLR None
2018-01-20 00:53 28 21 - 74 - Calm - 30.03 30.03 10 CLR 6-hr Min Temp (1am): 27.0°F
6-hr Max Temp (1am): 33.1°F
2018-01-19 23:53 27 22 - 80 - Calm - 30.05 30.04 9 CLR 24-hr Min Temp (12am): 23.0°F
24-hr Max Temp (12am): 50.0°F
2018-01-19 22:53 28 22 - 77 - Calm - 30.05 30.05 9 CLR None
2018-01-19 21:53 30 22 - 71 - Calm - 30.06 30.06 9 CLR None
2018-01-19 20:53 28 22 - 77 - Calm - 30.06 30.06 9 CLR None
2018-01-19 19:53 30 21 - 68 - Calm - 30.07 30.06 10 CLR None
2018-01-19 18:53 32 18 - 55 - Calm - 30.07 30.06 9 CLR 6-hr Min Temp (7pm): 32.0°F
6-hr Max Temp (7pm): 50.0°F
2018-01-19 17:53 36 16 31 43 110° 6 - 30.06 30.05 10 CLR None
2018-01-19 16:53 41 13 38 31 110° 5 - 30.06 30.06 9 CLR None
2018-01-19 15:53 46 14 42 27 110° 7 - 30.07 30.06 10 CLR None
2018-01-19 14:53 49 12 48 22 120° 3 - 30.06 30.06 10 CLR None
2018-01-19 13:53 47 15 46 27 210° 3 - 30.07 30.07 10 CLR None
2018-01-19 12:53 43 19 38 37 200° 8 - 30.09 30.08 10 CLR 6-hr Min Temp (1pm): 25.0°F
6-hr Max Temp (1pm): 43.0°F
2018-01-19 11:53 40 19 35 42 220° 7 - 30.13 30.13 10 CLR None
2018-01-19 10:53 40 19 - 42 - Calm - 30.15 30.15 10 CLR None

Support USWX by starting your Amazon purchase here.